sensor_id;sensor_type;location;lat;lon;timestamp;P1;durP1;ratioP1;P2;durP2;ratioP2
67889;SDS011;54685;52.082;5.426;2023-06-14T00:01:48;5.78;;;2.50;;
67889;SDS011;54685;52.082;5.426;2023-06-14T00:04:15;7.80;;;2.50;;
67889;SDS011;54685;52.082;5.426;2023-06-14T00:06:47;6.88;;;2.55;;
67889;SDS011;54685;52.082;5.426;2023-06-14T00:09:20;9.63;;;2.60;;
67889;SDS011;54685;52.082;5.426;2023-06-14T00:11:47;7.32;;;2.30;;
67889;SDS011;54685;52.082;5.426;2023-06-14T00:14:14;5.55;;;2.63;;
67889;SDS011;54685;52.082;5.426;2023-06-14T00:16:41;6.30;;;2.72;;
67889;SDS011;54685;52.082;5.426;2023-06-14T00:19:09;12.35;;;3.30;;
67889;SDS011;54685;52.082;5.426;2023-06-14T00:21:37;6.43;;;2.50;;
67889;SDS011;54685;52.082;5.426;2023-06-14T00:24:04;7.40;;;2.65;;
67889;SDS011;54685;52.082;5.426;2023-06-14T00:26:32;8.20;;;2.78;;
67889;SDS011;54685;52.082;5.426;2023-06-14T00:28:59;6.07;;;2.45;;
67889;SDS011;54685;52.082;5.426;2023-06-14T00:31:26;7.88;;;2.88;;
67889;SDS011;54685;52.082;5.426;2023-06-14T00:33:53;7.30;;;2.70;;
67889;SDS011;54685;52.082;5.426;2023-06-14T00:36:20;6.03;;;2.70;;
67889;SDS011;54685;52.082;5.426;2023-06-14T00:38:47;8.02;;;2.38;;
67889;SDS011;54685;52.082;5.426;2023-06-14T00:41:13;9.15;;;2.47;;
67889;SDS011;54685;52.082;5.426;2023-06-14T00:43:41;11.73;;;2.95;;
67889;SDS011;54685;52.082;5.426;2023-06-14T00:46:08;6.45;;;2.58;;
67889;SDS011;54685;52.082;5.426;2023-06-14T00:48:35;5.97;;;2.70;;
67889;SDS011;54685;52.082;5.426;2023-06-14T00:51:05;6.05;;;2.50;;
67889;SDS011;54685;52.082;5.426;2023-06-14T00:53:32;13.20;;;3.05;;
67889;SDS011;54685;52.082;5.426;2023-06-14T00:56:02;8.07;;;2.97;;
67889;SDS011;54685;52.082;5.426;2023-06-14T00:58:29;4.95;;;2.53;;
67889;SDS011;54685;52.082;5.426;2023-06-14T01:00:57;8.85;;;2.90;;
67889;SDS011;54685;52.082;5.426;2023-06-14T01:03:24;3.72;;;2.45;;
67889;SDS011;54685;52.082;5.426;2023-06-14T01:05:53;7.32;;;3.10;;
67889;SDS011;54685;52.082;5.426;2023-06-14T01:08:31;8.25;;;3.05;;
67889;SDS011;54685;52.082;5.426;2023-06-14T01:11:28;7.78;;;2.53;;
67889;SDS011;54685;52.082;5.426;2023-06-14T01:14:02;5.68;;;2.47;;
67889;SDS011;54685;52.082;5.426;2023-06-14T01:16:32;9.30;;;2.53;;
67889;SDS011;54685;52.082;5.426;2023-06-14T01:19:02;10.15;;;3.15;;
67889;SDS011;54685;52.082;5.426;2023-06-14T01:21:31;12.23;;;2.95;;
67889;SDS011;54685;52.082;5.426;2023-06-14T01:24:10;9.65;;;2.70;;
67889;SDS011;54685;52.082;5.426;2023-06-14T01:26:37;5.05;;;2.53;;
67889;SDS011;54685;52.082;5.426;2023-06-14T01:29:12;8.88;;;2.55;;
67889;SDS011;54685;52.082;5.426;2023-06-14T01:31:44;6.75;;;2.72;;
67889;SDS011;54685;52.082;5.426;2023-06-14T01:34:12;5.90;;;3.00;;
67889;SDS011;54685;52.082;5.426;2023-06-14T01:36:41;7.32;;;2.55;;
67889;SDS011;54685;52.082;5.426;2023-06-14T01:39:11;3.90;;;2.30;;
67889;SDS011;54685;52.082;5.426;2023-06-14T01:41:42;7.68;;;2.55;;
67889;SDS011;54685;52.082;5.426;2023-06-14T01:44:12;6.15;;;2.70;;
67889;SDS011;54685;52.082;5.426;2023-06-14T01:46:40;8.32;;;2.63;;
67889;SDS011;54685;52.082;5.426;2023-06-14T01:49:08;3.72;;;2.50;;
67889;SDS011;54685;52.082;5.426;2023-06-14T01:51:35;6.78;;;2.60;;
67889;SDS011;54685;52.082;5.426;2023-06-14T01:54:02;7.03;;;2.60;;
67889;SDS011;54685;52.082;5.426;2023-06-14T01:56:30;5.10;;;2.80;;
67889;SDS011;54685;52.082;5.426;2023-06-14T01:58:58;6.53;;;2.60;;
67889;SDS011;54685;52.082;5.426;2023-06-14T02:01:25;8.60;;;2.60;;
67889;SDS011;54685;52.082;5.426;2023-06-14T02:03:53;7.40;;;2.58;;
67889;SDS011;54685;52.082;5.426;2023-06-14T02:06:20;8.98;;;3.10;;
67889;SDS011;54685;52.082;5.426;2023-06-14T02:08:47;5.00;;;2.45;;
67889;SDS011;54685;52.082;5.426;2023-06-14T02:11:13;6.28;;;2.63;;
67889;SDS011;54685;52.082;5.426;2023-06-14T02:13:41;5.40;;;2.75;;
67889;SDS011;54685;52.082;5.426;2023-06-14T02:16:08;6.70;;;2.90;;
67889;SDS011;54685;52.082;5.426;2023-06-14T02:18:36;7.32;;;2.97;;
67889;SDS011;54685;52.082;5.426;2023-06-14T02:21:04;7.68;;;2.60;;
67889;SDS011;54685;52.082;5.426;2023-06-14T02:23:31;5.00;;;3.10;;
67889;SDS011;54685;52.082;5.426;2023-06-14T02:26:00;11.07;;;2.63;;
67889;SDS011;54685;52.082;5.426;2023-06-14T02:28:29;6.18;;;2.85;;
67889;SDS011;54685;52.082;5.426;2023-06-14T02:30:56;8.07;;;3.30;;
67889;SDS011;54685;52.082;5.426;2023-06-14T02:33:23;8.95;;;3.00;;
67889;SDS011;54685;52.082;5.426;2023-06-14T02:35:51;3.60;;;2.38;;
67889;SDS011;54685;52.082;5.426;2023-06-14T02:38:19;6.15;;;2.65;;
67889;SDS011;54685;52.082;5.426;2023-06-14T02:40:47;11.38;;;2.50;;
67889;SDS011;54685;52.082;5.426;2023-06-14T02:43:14;4.93;;;2.65;;
67889;SDS011;54685;52.082;5.426;2023-06-14T02:45:43;4.78;;;2.78;;
67889;SDS011;54685;52.082;5.426;2023-06-14T02:48:10;5.93;;;2.80;;
67889;SDS011;54685;52.082;5.426;2023-06-14T02:50:39;6.50;;;2.85;;
67889;SDS011;54685;52.082;5.426;2023-06-14T02:53:06;9.57;;;2.67;;
67889;SDS011;54685;52.082;5.426;2023-06-14T02:55:35;11.10;;;3.00;;
67889;SDS011;54685;52.082;5.426;2023-06-14T02:58:06;4.80;;;2.28;;
67889;SDS011;54685;52.082;5.426;2023-06-14T03:00:33;7.18;;;2.83;;
67889;SDS011;54685;52.082;5.426;2023-06-14T03:03:03;5.40;;;2.53;;
67889;SDS011;54685;52.082;5.426;2023-06-14T03:05:46;12.15;;;2.60;;
67889;SDS011;54685;52.082;5.426;2023-06-14T03:08:19;10.95;;;2.60;;
67889;SDS011;54685;52.082;5.426;2023-06-14T03:10:49;3.92;;;2.60;;
67889;SDS011;54685;52.082;5.426;2023-06-14T03:13:17;3.63;;;2.60;;
67889;SDS011;54685;52.082;5.426;2023-06-14T03:15:48;8.02;;;2.47;;
67889;SDS011;54685;52.082;5.426;2023-06-14T03:18:19;5.18;;;2.80;;
67889;SDS011;54685;52.082;5.426;2023-06-14T03:20:53;7.32;;;2.60;;
67889;SDS011;54685;52.082;5.426;2023-06-14T03:23:24;7.82;;;2.72;;
67889;SDS011;54685;52.082;5.426;2023-06-14T03:25:54;7.65;;;2.35;;
67889;SDS011;54685;52.082;5.426;2023-06-14T03:28:23;10.75;;;2.70;;
67889;SDS011;54685;52.082;5.426;2023-06-14T03:30:53;5.55;;;2.80;;
67889;SDS011;54685;52.082;5.426;2023-06-14T03:33:25;8.23;;;2.90;;
67889;SDS011;54685;52.082;5.426;2023-06-14T03:35:52;6.57;;;3.45;;
67889;SDS011;54685;52.082;5.426;2023-06-14T03:38:20;8.60;;;3.00;;
67889;SDS011;54685;52.082;5.426;2023-06-14T03:40:48;4.60;;;2.28;;
67889;SDS011;54685;52.082;5.426;2023-06-14T03:43:15;5.85;;;2.70;;
67889;SDS011;54685;52.082;5.426;2023-06-14T03:45:42;11.43;;;2.80;;
67889;SDS011;54685;52.082;5.426;2023-06-14T03:48:09;10.02;;;2.83;;
67889;SDS011;54685;52.082;5.426;2023-06-14T03:50:36;7.47;;;2.97;;
67889;SDS011;54685;52.082;5.426;2023-06-14T03:53:06;11.52;;;2.50;;
67889;SDS011;54685;52.082;5.426;2023-06-14T03:55:35;7.05;;;2.47;;
67889;SDS011;54685;52.082;5.426;2023-06-14T03:58:24;4.50;;;2.42;;
67889;SDS011;54685;52.082;5.426;2023-06-14T04:00:51;13.00;;;2.78;;
67889;SDS011;54685;52.082;5.426;2023-06-14T04:03:18;5.10;;;2.20;;
67889;SDS011;54685;52.082;5.426;2023-06-14T04:05:46;8.82;;;2.70;;
67889;SDS011;54685;52.082;5.426;2023-06-14T04:08:17;9.07;;;2.70;;
67889;SDS011;54685;52.082;5.426;2023-06-14T04:10:46;7.35;;;2.67;;
67889;SDS011;54685;52.082;5.426;2023-06-14T04:13:14;17.90;;;2.40;;
67889;SDS011;54685;52.082;5.426;2023-06-14T04:15:41;6.85;;;2.67;;
67889;SDS011;54685;52.082;5.426;2023-06-14T04:18:13;5.90;;;2.38;;
67889;SDS011;54685;52.082;5.426;2023-06-14T04:20:40;4.82;;;2.53;;
67889;SDS011;54685;52.082;5.426;2023-06-14T04:23:14;7.63;;;2.53;;
67889;SDS011;54685;52.082;5.426;2023-06-14T04:25:44;7.60;;;2.85;;
67889;SDS011;54685;52.082;5.426;2023-06-14T04:28:12;13.88;;;2.60;;
67889;SDS011;54685;52.082;5.426;2023-06-14T04:30:42;9.48;;;2.97;;
67889;SDS011;54685;52.082;5.426;2023-06-14T04:33:10;10.85;;;2.72;;
67889;SDS011;54685;52.082;5.426;2023-06-14T04:35:38;9.70;;;2.90;;
67889;SDS011;54685;52.082;5.426;2023-06-14T04:38:05;10.52;;;2.50;;
67889;SDS011;54685;52.082;5.426;2023-06-14T04:40:35;8.50;;;2.97;;
67889;SDS011;54685;52.082;5.426;2023-06-14T04:43:10;9.05;;;2.97;;
67889;SDS011;54685;52.082;5.426;2023-06-14T04:45:46;9.30;;;2.90;;
67889;SDS011;54685;52.082;5.426;2023-06-14T04:48:14;9.13;;;2.80;;
67889;SDS011;54685;52.082;5.426;2023-06-14T04:50:41;6.78;;;2.80;;
67889;SDS011;54685;52.082;5.426;2023-06-14T04:53:10;4.40;;;2.60;;
67889;SDS011;54685;52.082;5.426;2023-06-14T04:55:37;5.57;;;2.58;;
67889;SDS011;54685;52.082;5.426;2023-06-14T04:58:05;8.23;;;2.75;;
67889;SDS011;54685;52.082;5.426;2023-06-14T05:00:31;12.45;;;3.08;;
67889;SDS011;54685;52.082;5.426;2023-06-14T05:02:58;6.28;;;2.78;;
67889;SDS011;54685;52.082;5.426;2023-06-14T05:05:27;8.98;;;2.80;;
67889;SDS011;54685;52.082;5.426;2023-06-14T05:07:54;18.20;;;3.30;;
67889;SDS011;54685;52.082;5.426;2023-06-14T05:10:21;11.45;;;3.00;;
67889;SDS011;54685;52.082;5.426;2023-06-14T05:12:48;13.18;;;3.08;;
67889;SDS011;54685;52.082;5.426;2023-06-14T05:15:17;8.48;;;2.72;;
67889;SDS011;54685;52.082;5.426;2023-06-14T05:17:45;11.55;;;3.17;;
67889;SDS011;54685;52.082;5.426;2023-06-14T05:20:24;8.65;;;2.60;;
67889;SDS011;54685;52.082;5.426;2023-06-14T05:22:54;8.88;;;3.00;;
67889;SDS011;54685;52.082;5.426;2023-06-14T05:25:23;7.13;;;2.75;;
67889;SDS011;54685;52.082;5.426;2023-06-14T05:27:50;13.18;;;2.90;;
67889;SDS011;54685;52.082;5.426;2023-06-14T05:30:17;3.63;;;2.60;;
67889;SDS011;54685;52.082;5.426;2023-06-14T05:32:44;9.32;;;2.90;;
67889;SDS011;54685;52.082;5.426;2023-06-14T05:35:11;4.95;;;2.38;;
67889;SDS011;54685;52.082;5.426;2023-06-14T05:37:38;6.30;;;3.00;;
67889;SDS011;54685;52.082;5.426;2023-06-14T05:40:07;9.48;;;2.88;;
67889;SDS011;54685;52.082;5.426;2023-06-14T05:42:35;13.05;;;3.08;;
67889;SDS011;54685;52.082;5.426;2023-06-14T05:45:02;6.30;;;2.47;;
67889;SDS011;54685;52.082;5.426;2023-06-14T05:47:31;7.22;;;2.72;;
67889;SDS011;54685;52.082;5.426;2023-06-14T05:49:58;14.70;;;3.20;;
67889;SDS011;54685;52.082;5.426;2023-06-14T05:52:25;8.50;;;2.78;;
67889;SDS011;54685;52.082;5.426;2023-06-14T05:54:52;7.55;;;2.55;;
67889;SDS011;54685;52.082;5.426;2023-06-14T05:57:20;5.25;;;2.35;;
67889;SDS011;54685;52.082;5.426;2023-06-14T05:59:47;10.93;;;2.28;;
67889;SDS011;54685;52.082;5.426;2023-06-14T06:02:14;8.10;;;2.70;;
67889;SDS011;54685;52.082;5.426;2023-06-14T06:04:41;6.72;;;2.63;;
67889;SDS011;54685;52.082;5.426;2023-06-14T06:07:08;7.68;;;2.60;;
67889;SDS011;54685;52.082;5.426;2023-06-14T06:09:35;5.57;;;2.80;;
67889;SDS011;54685;52.082;5.426;2023-06-14T06:12:02;13.07;;;3.40;;
67889;SDS011;54685;52.082;5.426;2023-06-14T06:14:29;12.55;;;2.67;;
67889;SDS011;54685;52.082;5.426;2023-06-14T06:16:56;10.73;;;2.90;;
67889;SDS011;54685;52.082;5.426;2023-06-14T06:19:23;5.38;;;2.72;;
67889;SDS011;54685;52.082;5.426;2023-06-14T06:21:50;8.88;;;2.55;;
67889;SDS011;54685;52.082;5.426;2023-06-14T06:24:17;8.15;;;2.63;;
67889;SDS011;54685;52.082;5.426;2023-06-14T06:26:44;5.20;;;2.45;;
67889;SDS011;54685;52.082;5.426;2023-06-14T06:29:17;5.95;;;2.83;;
67889;SDS011;54685;52.082;5.426;2023-06-14T06:31:44;7.15;;;2.70;;
67889;SDS011;54685;52.082;5.426;2023-06-14T06:34:14;11.70;;;2.30;;
67889;SDS011;54685;52.082;5.426;2023-06-14T06:36:41;7.55;;;2.55;;
67889;SDS011;54685;52.082;5.426;2023-06-14T06:39:09;8.63;;;2.42;;
67889;SDS011;54685;52.082;5.426;2023-06-14T06:41:42;7.75;;;2.70;;
67889;SDS011;54685;52.082;5.426;2023-06-14T06:44:10;10.10;;;2.80;;
67889;SDS011;54685;52.082;5.426;2023-06-14T06:46:48;3.83;;;2.35;;
67889;SDS011;54685;52.082;5.426;2023-06-14T06:49:15;6.57;;;2.55;;
67889;SDS011;54685;52.082;5.426;2023-06-14T06:51:42;3.70;;;2.30;;
67889;SDS011;54685;52.082;5.426;2023-06-14T06:54:10;5.20;;;2.50;;
67889;SDS011;54685;52.082;5.426;2023-06-14T06:56:37;6.32;;;2.20;;
67889;SDS011;54685;52.082;5.426;2023-06-14T06:59:04;6.15;;;2.08;;
67889;SDS011;54685;52.082;5.426;2023-06-14T07:01:31;7.72;;;2.35;;
67889;SDS011;54685;52.082;5.426;2023-06-14T07:04:00;5.93;;;2.05;;
67889;SDS011;54685;52.082;5.426;2023-06-14T07:06:28;11.05;;;2.22;;
67889;SDS011;54685;52.082;5.426;2023-06-14T07:08:55;8.85;;;2.53;;
67889;SDS011;54685;52.082;5.426;2023-06-14T07:11:28;4.63;;;2.03;;
67889;SDS011;54685;52.082;5.426;2023-06-14T07:13:55;3.17;;;2.30;;
67889;SDS011;54685;52.082;5.426;2023-06-14T07:16:22;7.85;;;2.30;;
67889;SDS011;54685;52.082;5.426;2023-06-14T07:18:49;6.00;;;2.30;;
67889;SDS011;54685;52.082;5.426;2023-06-14T07:21:17;3.40;;;2.08;;
67889;SDS011;54685;52.082;5.426;2023-06-14T07:23:44;13.27;;;2.15;;
67889;SDS011;54685;52.082;5.426;2023-06-14T07:26:13;5.78;;;2.55;;
67889;SDS011;54685;52.082;5.426;2023-06-14T07:28:40;10.55;;;2.50;;
67889;SDS011;54685;52.082;5.426;2023-06-14T07:31:07;5.95;;;2.10;;
67889;SDS011;54685;52.082;5.426;2023-06-14T07:33:34;6.78;;;2.10;;
67889;SDS011;54685;52.082;5.426;2023-06-14T07:36:01;5.07;;;1.80;;
67889;SDS011;54685;52.082;5.426;2023-06-14T07:38:28;5.10;;;2.20;;
67889;SDS011;54685;52.082;5.426;2023-06-14T07:40:55;4.50;;;1.70;;
67889;SDS011;54685;52.082;5.426;2023-06-14T07:43:23;8.40;;;2.10;;
67889;SDS011;54685;52.082;5.426;2023-06-14T07:45:50;8.73;;;2.17;;
67889;SDS011;54685;52.082;5.426;2023-06-14T07:48:33;7.13;;;2.10;;
67889;SDS011;54685;52.082;5.426;2023-06-14T07:51:00;6.47;;;1.75;;
67889;SDS011;54685;52.082;5.426;2023-06-14T07:53:27;3.78;;;1.85;;
67889;SDS011;54685;52.082;5.426;2023-06-14T07:55:55;6.13;;;2.00;;
67889;SDS011;54685;52.082;5.426;2023-06-14T07:58:22;4.63;;;1.92;;
67889;SDS011;54685;52.082;5.426;2023-06-14T08:00:49;6.15;;;1.85;;
67889;SDS011;54685;52.082;5.426;2023-06-14T08:03:16;9.45;;;2.13;;
67889;SDS011;54685;52.082;5.426;2023-06-14T08:05:44;4.60;;;1.77;;
67889;SDS011;54685;52.082;5.426;2023-06-14T08:08:11;9.55;;;2.22;;
67889;SDS011;54685;52.082;5.426;2023-06-14T08:10:39;4.75;;;1.80;;
67889;SDS011;54685;52.082;5.426;2023-06-14T08:13:06;11.73;;;1.83;;
67889;SDS011;54685;52.082;5.426;2023-06-14T08:15:33;2.28;;;1.60;;
67889;SDS011;54685;52.082;5.426;2023-06-14T08:18:00;8.15;;;1.60;;
67889;SDS011;54685;52.082;5.426;2023-06-14T08:20:27;5.82;;;1.25;;
67889;SDS011;54685;52.082;5.426;2023-06-14T08:22:56;2.78;;;1.60;;
67889;SDS011;54685;52.082;5.426;2023-06-14T08:25:24;4.55;;;1.77;;
67889;SDS011;54685;52.082;5.426;2023-06-14T08:27:52;2.10;;;1.33;;
67889;SDS011;54685;52.082;5.426;2023-06-14T08:30:19;8.35;;;1.30;;
67889;SDS011;54685;52.082;5.426;2023-06-14T08:32:46;5.07;;;1.33;;
67889;SDS011;54685;52.082;5.426;2023-06-14T08:35:18;2.47;;;1.50;;
67889;SDS011;54685;52.082;5.426;2023-06-14T08:37:46;3.22;;;1.33;;
67889;SDS011;54685;52.082;5.426;2023-06-14T08:40:22;2.08;;;1.25;;
67889;SDS011;54685;52.082;5.426;2023-06-14T08:42:51;2.30;;;1.40;;
67889;SDS011;54685;52.082;5.426;2023-06-14T08:45:19;1.98;;;1.20;;
67889;SDS011;54685;52.082;5.426;2023-06-14T08:47:51;8.80;;;1.25;;
67889;SDS011;54685;52.082;5.426;2023-06-14T08:50:19;3.50;;;1.20;;
67889;SDS011;54685;52.082;5.426;2023-06-14T08:52:55;3.28;;;1.70;;
67889;SDS011;54685;52.082;5.426;2023-06-14T08:55:26;6.05;;;1.50;;
67889;SDS011;54685;52.082;5.426;2023-06-14T08:57:54;2.88;;;1.30;;
67889;SDS011;54685;52.082;5.426;2023-06-14T09:00:24;3.80;;;1.48;;
67889;SDS011;54685;52.082;5.426;2023-06-14T09:02:55;4.00;;;1.33;;
67889;SDS011;54685;52.082;5.426;2023-06-14T09:05:24;8.68;;;1.60;;
67889;SDS011;54685;52.082;5.426;2023-06-14T09:07:51;4.55;;;1.50;;
67889;SDS011;54685;52.082;5.426;2023-06-14T09:10:21;9.40;;;1.50;;
67889;SDS011;54685;52.082;5.426;2023-06-14T09:12:49;5.25;;;1.60;;
67889;SDS011;54685;52.082;5.426;2023-06-14T09:15:17;4.45;;;1.33;;
67889;SDS011;54685;52.082;5.426;2023-06-14T09:17:44;4.65;;;1.33;;
67889;SDS011;54685;52.082;5.426;2023-06-14T09:20:11;10.98;;;1.60;;
67889;SDS011;54685;52.082;5.426;2023-06-14T09:22:46;2.13;;;1.38;;
67889;SDS011;54685;52.082;5.426;2023-06-14T09:25:13;4.47;;;1.52;;
67889;SDS011;54685;52.082;5.426;2023-06-14T09:28:01;12.75;;;1.45;;
67889;SDS011;54685;52.082;5.426;2023-06-14T09:30:28;2.55;;;1.60;;
67889;SDS011;54685;52.082;5.426;2023-06-14T09:32:55;2.53;;;1.30;;
67889;SDS011;54685;52.082;5.426;2023-06-14T09:35:26;3.58;;;1.48;;
67889;SDS011;54685;52.082;5.426;2023-06-14T09:37:55;5.30;;;1.40;;
67889;SDS011;54685;52.082;5.426;2023-06-14T09:40:23;3.42;;;1.30;;
67889;SDS011;54685;52.082;5.426;2023-06-14T09:42:50;4.72;;;1.40;;
67889;SDS011;54685;52.082;5.426;2023-06-14T09:45:18;2.78;;;1.23;;
67889;SDS011;54685;52.082;5.426;2023-06-14T09:47:48;2.35;;;1.75;;
67889;SDS011;54685;52.082;5.426;2023-06-14T09:50:31;9.95;;;1.73;;
67889;SDS011;54685;52.082;5.426;2023-06-14T09:52:59;2.45;;;1.50;;
67889;SDS011;54685;52.082;5.426;2023-06-14T09:55:30;3.03;;;1.50;;
67889;SDS011;54685;52.082;5.426;2023-06-14T09:58:00;4.78;;;1.30;;
67889;SDS011;54685;52.082;5.426;2023-06-14T10:00:33;16.65;;;1.70;;
67889;SDS011;54685;52.082;5.426;2023-06-14T10:03:03;6.25;;;1.48;;
67889;SDS011;54685;52.082;5.426;2023-06-14T10:05:41;3.72;;;1.20;;
67889;SDS011;54685;52.082;5.426;2023-06-14T10:08:15;6.25;;;1.48;;
67889;SDS011;54685;52.082;5.426;2023-06-14T10:10:46;5.38;;;1.30;;
67889;SDS011;54685;52.082;5.426;2023-06-14T10:13:14;5.00;;;1.30;;
67889;SDS011;54685;52.082;5.426;2023-06-14T10:15:52;5.68;;;1.40;;
67889;SDS011;54685;52.082;5.426;2023-06-14T10:18:54;4.15;;;1.65;;
67889;SDS011;54685;52.082;5.426;2023-06-14T10:24:33;2.13;;;1.60;;
67889;SDS011;54685;52.082;5.426;2023-06-14T10:27:07;4.93;;;1.38;;
67889;SDS011;54685;52.082;5.426;2023-06-14T10:32:22;5.65;;;1.30;;
67889;SDS011;54685;52.082;5.426;2023-06-14T10:34:58;2.15;;;1.25;;
67889;SDS011;54685;52.082;5.426;2023-06-14T10:37:27;4.28;;;1.40;;
67889;SDS011;54685;52.082;5.426;2023-06-14T10:39:54;6.50;;;1.40;;
67889;SDS011;54685;52.082;5.426;2023-06-14T10:42:21;2.28;;;1.17;;
67889;SDS011;54685;52.082;5.426;2023-06-14T10:44:50;6.70;;;1.50;;
67889;SDS011;54685;52.082;5.426;2023-06-14T10:47:27;4.40;;;1.30;;
67889;SDS011;54685;52.082;5.426;2023-06-14T10:52:29;3.90;;;1.55;;
67889;SDS011;54685;52.082;5.426;2023-06-14T10:57:43;6.25;;;1.58;;
67889;SDS011;54685;52.082;5.426;2023-06-14T11:00:21;9.50;;;1.55;;
67889;SDS011;54685;52.082;5.426;2023-06-14T11:03:05;3.97;;;1.60;;
67889;SDS011;54685;52.082;5.426;2023-06-14T11:05:57;5.28;;;1.30;;
67889;SDS011;54685;52.082;5.426;2023-06-14T11:11:23;5.10;;;1.58;;
67889;SDS011;54685;52.082;5.426;2023-06-14T11:13:56;2.45;;;1.38;;
67889;SDS011;54685;52.082;5.426;2023-06-14T11:16:25;5.65;;;1.10;;
67889;SDS011;54685;52.082;5.426;2023-06-14T11:18:54;2.08;;;1.60;;
67889;SDS011;54685;52.082;5.426;2023-06-14T11:21:21;2.30;;;1.27;;
67889;SDS011;54685;52.082;5.426;2023-06-14T11:23:51;3.17;;;1.23;;
67889;SDS011;54685;52.082;5.426;2023-06-14T11:26:29;4.65;;;1.60;;
67889;SDS011;54685;52.082;5.426;2023-06-14T11:28:58;7.68;;;1.40;;
67889;SDS011;54685;52.082;5.426;2023-06-14T11:31:26;4.22;;;1.20;;
67889;SDS011;54685;52.082;5.426;2023-06-14T11:34:01;3.72;;;1.50;;
67889;SDS011;54685;52.082;5.426;2023-06-14T11:36:29;4.15;;;1.40;;
67889;SDS011;54685;52.082;5.426;2023-06-14T11:39:02;9.13;;;2.00;;
67889;SDS011;54685;52.082;5.426;2023-06-14T11:41:36;5.32;;;1.48;;
67889;SDS011;54685;52.082;5.426;2023-06-14T11:44:05;3.78;;;1.40;;
67889;SDS011;54685;52.082;5.426;2023-06-14T11:46:33;3.80;;;1.40;;
67889;SDS011;54685;52.082;5.426;2023-06-14T11:49:02;3.90;;;1.13;;
67889;SDS011;54685;52.082;5.426;2023-06-14T11:51:36;5.93;;;1.40;;
67889;SDS011;54685;52.082;5.426;2023-06-14T11:54:04;5.85;;;1.50;;
67889;SDS011;54685;52.082;5.426;2023-06-14T11:56:33;4.68;;;1.40;;
67889;SDS011;54685;52.082;5.426;2023-06-14T11:59:01;4.35;;;1.42;;
67889;SDS011;54685;52.082;5.426;2023-06-14T12:01:29;3.35;;;1.30;;
67889;SDS011;54685;52.082;5.426;2023-06-14T12:04:00;2.58;;;1.33;;
67889;SDS011;54685;52.082;5.426;2023-06-14T12:06:28;4.55;;;1.40;;
67889;SDS011;54685;52.082;5.426;2023-06-14T12:09:00;3.50;;;1.40;;
67889;SDS011;54685;52.082;5.426;2023-06-14T12:14:02;4.10;;;1.37;;
67889;SDS011;54685;52.082;5.426;2023-06-14T12:16:32;5.32;;;1.35;;
67889;SDS011;54685;52.082;5.426;2023-06-14T12:19:01;2.27;;;1.37;;
67889;SDS011;54685;52.082;5.426;2023-06-14T12:21:37;3.38;;;1.20;;
67889;SDS011;54685;52.082;5.426;2023-06-14T12:24:07;5.82;;;1.55;;
67889;SDS011;54685;52.082;5.426;2023-06-14T12:26:38;3.75;;;1.65;;
67889;SDS011;54685;52.082;5.426;2023-06-14T12:29:07;6.28;;;1.98;;
67889;SDS011;54685;52.082;5.426;2023-06-14T12:31:34;2.53;;;1.40;;
67889;SDS011;54685;52.082;5.426;2023-06-14T12:34:02;4.80;;;1.38;;
67889;SDS011;54685;52.082;5.426;2023-06-14T12:36:30;5.18;;;1.50;;
67889;SDS011;54685;52.082;5.426;2023-06-14T12:38:58;4.55;;;1.20;;
67889;SDS011;54685;52.082;5.426;2023-06-14T12:41:24;5.30;;;1.50;;
67889;SDS011;54685;52.082;5.426;2023-06-14T12:43:53;4.57;;;1.50;;
67889;SDS011;54685;52.082;5.426;2023-06-14T12:46:20;6.32;;;1.30;;
67889;SDS011;54685;52.082;5.426;2023-06-14T12:48:47;3.63;;;1.30;;
67889;SDS011;54685;52.082;5.426;2023-06-14T12:51:14;7.90;;;1.50;;
67889;SDS011;54685;52.082;5.426;2023-06-14T12:53:41;3.60;;;1.30;;
67889;SDS011;54685;52.082;5.426;2023-06-14T12:56:08;6.68;;;1.42;;
67889;SDS011;54685;52.082;5.426;2023-06-14T12:58:35;3.30;;;1.23;;
67889;SDS011;54685;52.082;5.426;2023-06-14T13:01:02;7.13;;;1.40;;
67889;SDS011;54685;52.082;5.426;2023-06-14T13:03:29;6.60;;;1.75;;
67889;SDS011;54685;52.082;5.426;2023-06-14T13:05:56;3.13;;;1.40;;
67889;SDS011;54685;52.082;5.426;2023-06-14T13:08:23;1.77;;;1.40;;
67889;SDS011;54685;52.082;5.426;2023-06-14T13:10:51;3.35;;;1.52;;
67889;SDS011;54685;52.082;5.426;2023-06-14T13:13:18;4.05;;;1.30;;
67889;SDS011;54685;52.082;5.426;2023-06-14T13:15:45;2.65;;;1.25;;
67889;SDS011;54685;52.082;5.426;2023-06-14T13:18:12;6.10;;;1.40;;
67889;SDS011;54685;52.082;5.426;2023-06-14T13:20:39;3.22;;;1.45;;
67889;SDS011;54685;52.082;5.426;2023-06-14T13:23:06;5.43;;;1.27;;
67889;SDS011;54685;52.082;5.426;2023-06-14T13:25:34;11.85;;;1.50;;
67889;SDS011;54685;52.082;5.426;2023-06-14T13:28:03;6.68;;;1.42;;
67889;SDS011;54685;52.082;5.426;2023-06-14T13:30:31;6.03;;;1.30;;
67889;SDS011;54685;52.082;5.426;2023-06-14T13:32:58;2.35;;;1.20;;
67889;SDS011;54685;52.082;5.426;2023-06-14T13:35:26;2.83;;;1.40;;
67889;SDS011;54685;52.082;5.426;2023-06-14T13:37:53;2.70;;;1.30;;
67889;SDS011;54685;52.082;5.426;2023-06-14T13:40:20;7.72;;;1.60;;
67889;SDS011;54685;52.082;5.426;2023-06-14T13:42:47;8.65;;;1.42;;
67889;SDS011;54685;52.082;5.426;2023-06-14T13:45:15;6.45;;;1.50;;
67889;SDS011;54685;52.082;5.426;2023-06-14T13:47:42;3.90;;;1.38;;
67889;SDS011;54685;52.082;5.426;2023-06-14T13:50:09;4.15;;;1.50;;
67889;SDS011;54685;52.082;5.426;2023-06-14T13:52:36;6.53;;;1.30;;
67889;SDS011;54685;52.082;5.426;2023-06-14T13:55:05;7.28;;;1.27;;
67889;SDS011;54685;52.082;5.426;2023-06-14T13:57:33;2.83;;;1.42;;
67889;SDS011;54685;52.082;5.426;2023-06-14T14:00:00;3.42;;;1.30;;
67889;SDS011;54685;52.082;5.426;2023-06-14T14:02:40;5.40;;;1.70;;
67889;SDS011;54685;52.082;5.426;2023-06-14T14:05:10;5.78;;;1.60;;
67889;SDS011;54685;52.082;5.426;2023-06-14T14:07:37;2.75;;;1.25;;
67889;SDS011;54685;52.082;5.426;2023-06-14T14:10:06;5.75;;;1.45;;
67889;SDS011;54685;52.082;5.426;2023-06-14T14:12:34;4.13;;;1.30;;
67889;SDS011;54685;52.082;5.426;2023-06-14T14:15:01;5.90;;;1.30;;
67889;SDS011;54685;52.082;5.426;2023-06-14T14:17:30;3.35;;;1.23;;
67889;SDS011;54685;52.082;5.426;2023-06-14T14:19:58;1.83;;;1.38;;
67889;SDS011;54685;52.082;5.426;2023-06-14T14:22:25;2.35;;;1.10;;
67889;SDS011;54685;52.082;5.426;2023-06-14T14:24:52;2.92;;;1.48;;
67889;SDS011;54685;52.082;5.426;2023-06-14T14:27:19;4.78;;;1.13;;
67889;SDS011;54685;52.082;5.426;2023-06-14T14:29:46;3.60;;;0.88;;
67889;SDS011;54685;52.082;5.426;2023-06-14T14:32:13;6.22;;;1.40;;
67889;SDS011;54685;52.082;5.426;2023-06-14T14:34:41;3.10;;;1.00;;
67889;SDS011;54685;52.082;5.426;2023-06-14T14:37:08;3.22;;;1.20;;
67889;SDS011;54685;52.082;5.426;2023-06-14T14:39:36;2.20;;;0.95;;
67889;SDS011;54685;52.082;5.426;2023-06-14T14:42:03;7.03;;;1.20;;
67889;SDS011;54685;52.082;5.426;2023-06-14T14:44:30;1.75;;;1.08;;
67889;SDS011;54685;52.082;5.426;2023-06-14T14:46:57;2.38;;;1.10;;
67889;SDS011;54685;52.082;5.426;2023-06-14T14:49:24;5.88;;;1.08;;
67889;SDS011;54685;52.082;5.426;2023-06-14T14:51:51;2.08;;;1.05;;
67889;SDS011;54685;52.082;5.426;2023-06-14T14:54:18;6.30;;;1.60;;
67889;SDS011;54685;52.082;5.426;2023-06-14T14:56:45;3.42;;;1.10;;
67889;SDS011;54685;52.082;5.426;2023-06-14T14:59:12;4.50;;;0.93;;
67889;SDS011;54685;52.082;5.426;2023-06-14T15:01:39;10.27;;;1.20;;
67889;SDS011;54685;52.082;5.426;2023-06-14T15:04:06;5.18;;;1.25;;
67889;SDS011;54685;52.082;5.426;2023-06-14T15:06:33;3.88;;;1.10;;
67889;SDS011;54685;52.082;5.426;2023-06-14T15:09:05;5.13;;;1.20;;
67889;SDS011;54685;52.082;5.426;2023-06-14T15:11:32;7.28;;;1.10;;
67889;SDS011;54685;52.082;5.426;2023-06-14T15:13:59;5.32;;;1.20;;